sensor_id;sensor_type;location;lat;lon;timestamp;temperature;humidity
8109;DHT22;4097;47.812;12.374;2022-12-18T00:02:07;-3.70;99.90
8109;DHT22;4097;47.812;12.374;2022-12-18T00:04:34;-3.90;99.90
8109;DHT22;4097;47.812;12.374;2022-12-18T00:07:01;-4.10;99.90
8109;DHT22;4097;47.812;12.374;2022-12-18T00:09:28;-4.10;99.90
8109;DHT22;4097;47.812;12.374;2022-12-18T00:11:55;-4.10;99.90
8109;DHT22;4097;47.812;12.374;2022-12-18T00:14:22;-4.30;99.90
8109;DHT22;4097;47.812;12.374;2022-12-18T00:16:51;-4.30;99.90
8109;DHT22;4097;47.812;12.374;2022-12-18T00:19:18;-4.40;99.90
8109;DHT22;4097;47.812;12.374;2022-12-18T00:21:44;-4.50;99.90
8109;DHT22;4097;47.812;12.374;2022-12-18T00:24:12;-4.40;99.90
8109;DHT22;4097;47.812;12.374;2022-12-18T00:26:39;-4.30;99.90
8109;DHT22;4097;47.812;12.374;2022-12-18T00:29:09;-4.30;99.90
8109;DHT22;4097;47.812;12.374;2022-12-18T00:31:37;-4.20;99.90
8109;DHT22;4097;47.812;12.374;2022-12-18T00:34:06;-4.00;99.90
8109;DHT22;4097;47.812;12.374;2022-12-18T00:36:34;-4.00;99.90
8109;DHT22;4097;47.812;12.374;2022-12-18T00:39:03;-3.90;99.90
8109;DHT22;4097;47.812;12.374;2022-12-18T00:41:30;-3.90;99.90
8109;DHT22;4097;47.812;12.374;2022-12-18T00:44:16;-3.80;99.90
8109;DHT22;4097;47.812;12.374;2022-12-18T00:46:44;-3.80;99.90
8109;DHT22;4097;47.812;12.374;2022-12-18T00:49:13;-3.90;99.90
8109;DHT22;4097;47.812;12.374;2022-12-18T00:51:40;-3.80;99.90
8109;DHT22;4097;47.812;12.374;2022-12-18T00:54:07;-3.80;99.90
8109;DHT22;4097;47.812;12.374;2022-12-18T00:56:35;-3.80;99.90
8109;DHT22;4097;47.812;12.374;2022-12-18T00:59:03;-3.70;99.90
8109;DHT22;4097;47.812;12.374;2022-12-18T01:01:30;-3.80;99.90
8109;DHT22;4097;47.812;12.374;2022-12-18T01:03:58;-3.70;99.90
8109;DHT22;4097;47.812;12.374;2022-12-18T01:06:27;-3.80;99.90
8109;DHT22;4097;47.812;12.374;2022-12-18T01:08:54;-3.80;99.90
8109;DHT22;4097;47.812;12.374;2022-12-18T01:11:21;-3.80;99.90
8109;DHT22;4097;47.812;12.374;2022-12-18T01:13:49;-3.80;99.90
8109;DHT22;4097;47.812;12.374;2022-12-18T01:16:18;-3.80;99.90
8109;DHT22;4097;47.812;12.374;2022-12-18T01:18:46;-3.80;99.90
8109;DHT22;4097;47.812;12.374;2022-12-18T01:21:15;-3.60;99.90
8109;DHT22;4097;47.812;12.374;2022-12-18T01:23:44;-3.50;99.90
8109;DHT22;4097;47.812;12.374;2022-12-18T01:26:13;-3.60;99.90
8109;DHT22;4097;47.812;12.374;2022-12-18T01:28:40;-3.60;99.90
8109;DHT22;4097;47.812;12.374;2022-12-18T01:31:12;-3.70;99.90
8109;DHT22;4097;47.812;12.374;2022-12-18T01:33:39;-3.70;99.90
8109;DHT22;4097;47.812;12.374;2022-12-18T01:36:07;-3.70;99.90
8109;DHT22;4097;47.812;12.374;2022-12-18T01:38:34;-3.70;99.90
8109;DHT22;4097;47.812;12.374;2022-12-18T01:41:02;-3.70;99.90
8109;DHT22;4097;47.812;12.374;2022-12-18T01:43:47;-3.60;99.90
8109;DHT22;4097;47.812;12.374;2022-12-18T01:46:15;-3.50;99.90
8109;DHT22;4097;47.812;12.374;2022-12-18T01:48:42;-3.40;99.90
8109;DHT22;4097;47.812;12.374;2022-12-18T01:51:11;-3.30;99.90
8109;DHT22;4097;47.812;12.374;2022-12-18T01:53:40;-3.30;99.90
8109;DHT22;4097;47.812;12.374;2022-12-18T01:56:11;-3.40;99.90
8109;DHT22;4097;47.812;12.374;2022-12-18T01:58:43;-3.20;99.90
8109;DHT22;4097;47.812;12.374;2022-12-18T02:01:12;-3.30;99.90
8109;DHT22;4097;47.812;12.374;2022-12-18T02:03:41;-3.20;99.90
8109;DHT22;4097;47.812;12.374;2022-12-18T02:06:13;-3.30;99.90
8109;DHT22;4097;47.812;12.374;2022-12-18T02:08:47;-3.40;99.90
8109;DHT22;4097;47.812;12.374;2022-12-18T02:11:21;-3.50;99.90
8109;DHT22;4097;47.812;12.374;2022-12-18T02:13:53;-3.40;99.90
8109;DHT22;4097;47.812;12.374;2022-12-18T02:16:27;-3.50;99.90
8109;DHT22;4097;47.812;12.374;2022-12-18T02:18:59;-3.50;99.90
8109;DHT22;4097;47.812;12.374;2022-12-18T02:21:33;-3.60;99.90
8109;DHT22;4097;47.812;12.374;2022-12-18T02:24:16;-3.70;99.90
8109;DHT22;4097;47.812;12.374;2022-12-18T02:26:47;-3.80;99.90
8109;DHT22;4097;47.812;12.374;2022-12-18T02:29:18;-3.80;99.90
8109;DHT22;4097;47.812;12.374;2022-12-18T02:31:51;-3.80;99.90
8109;DHT22;4097;47.812;12.374;2022-12-18T02:34:20;-3.80;99.90
8109;DHT22;4097;47.812;12.374;2022-12-18T02:36:48;-3.80;99.90
8109;DHT22;4097;47.812;12.374;2022-12-18T02:39:16;-3.80;99.90
8109;DHT22;4097;47.812;12.374;2022-12-18T02:41:46;-3.70;99.90
8109;DHT22;4097;47.812;12.374;2022-12-18T02:44:14;-3.70;99.90
8109;DHT22;4097;47.812;12.374;2022-12-18T02:46:43;-3.60;99.90
8109;DHT22;4097;47.812;12.374;2022-12-18T02:49:17;-3.50;99.90
8109;DHT22;4097;47.812;12.374;2022-12-18T02:51:52;-3.60;99.90
8109;DHT22;4097;47.812;12.374;2022-12-18T02:54:29;-3.70;99.90
8109;DHT22;4097;47.812;12.374;2022-12-18T02:57:09;-3.70;99.90
8109;DHT22;4097;47.812;12.374;2022-12-18T02:59:41;-3.80;99.90
8109;DHT22;4097;47.812;12.374;2022-12-18T03:02:18;-3.80;99.90
8109;DHT22;4097;47.812;12.374;2022-12-18T03:04:49;-3.80;99.90
8109;DHT22;4097;47.812;12.374;2022-12-18T03:07:36;-3.80;99.90
8109;DHT22;4097;47.812;12.374;2022-12-18T03:10:07;-3.90;99.90
8109;DHT22;4097;47.812;12.374;2022-12-18T03:12:41;-4.00;99.90
8109;DHT22;4097;47.812;12.374;2022-12-18T03:15:12;-4.00;99.90
8109;DHT22;4097;47.812;12.374;2022-12-18T03:17:45;-4.00;99.90
8109;DHT22;4097;47.812;12.374;2022-12-18T03:20:15;-4.00;99.90
8109;DHT22;4097;47.812;12.374;2022-12-18T03:22:47;-4.00;99.90
8109;DHT22;4097;47.812;12.374;2022-12-18T03:25:19;-4.00;99.90
8109;DHT22;4097;47.812;12.374;2022-12-18T03:27:50;-4.00;99.90
8109;DHT22;4097;47.812;12.374;2022-12-18T03:30:18;-4.10;99.90
8109;DHT22;4097;47.812;12.374;2022-12-18T03:32:47;-4.20;99.90
8109;DHT22;4097;47.812;12.374;2022-12-18T03:35:21;-4.30;99.90
8109;DHT22;4097;47.812;12.374;2022-12-18T03:37:49;-4.40;99.90
8109;DHT22;4097;47.812;12.374;2022-12-18T03:40:17;-4.60;99.90
8109;DHT22;4097;47.812;12.374;2022-12-18T03:42:49;-4.70;99.90
8109;DHT22;4097;47.812;12.374;2022-12-18T03:45:22;-4.70;99.90
8109;DHT22;4097;47.812;12.374;2022-12-18T03:47:58;-4.80;99.90
8109;DHT22;4097;47.812;12.374;2022-12-18T03:50:33;-4.80;99.90
8109;DHT22;4097;47.812;12.374;2022-12-18T03:53:09;-4.80;99.90
8109;DHT22;4097;47.812;12.374;2022-12-18T03:55:39;-4.80;99.90
8109;DHT22;4097;47.812;12.374;2022-12-18T03:58:08;-4.90;99.90
8109;DHT22;4097;47.812;12.374;2022-12-18T04:00:37;-5.00;99.90
8109;DHT22;4097;47.812;12.374;2022-12-18T04:03:04;-5.20;99.90
8109;DHT22;4097;47.812;12.374;2022-12-18T04:05:34;-5.20;99.90
8109;DHT22;4097;47.812;12.374;2022-12-18T04:08:03;-5.20;99.90
8109;DHT22;4097;47.812;12.374;2022-12-18T04:10:30;-5.10;99.90
8109;DHT22;4097;47.812;12.374;2022-12-18T04:12:58;-5.10;99.90
8109;DHT22;4097;47.812;12.374;2022-12-18T04:15:26;-5.00;99.90
8109;DHT22;4097;47.812;12.374;2022-12-18T04:17:53;-5.00;99.90
8109;DHT22;4097;47.812;12.374;2022-12-18T04:20:20;-4.90;99.90
8109;DHT22;4097;47.812;12.374;2022-12-18T04:22:47;-5.10;99.90
8109;DHT22;4097;47.812;12.374;2022-12-18T04:25:15;-5.20;99.90
8109;DHT22;4097;47.812;12.374;2022-12-18T04:27:42;-5.40;99.90
8109;DHT22;4097;47.812;12.374;2022-12-18T04:30:10;-5.50;99.90
8109;DHT22;4097;47.812;12.374;2022-12-18T04:32:39;-5.40;99.90
8109;DHT22;4097;47.812;12.374;2022-12-18T04:35:06;-5.30;99.90
8109;DHT22;4097;47.812;12.374;2022-12-18T04:37:36;-5.30;99.90
8109;DHT22;4097;47.812;12.374;2022-12-18T04:40:03;-5.30;99.90
8109;DHT22;4097;47.812;12.374;2022-12-18T04:42:30;-5.30;99.90
8109;DHT22;4097;47.812;12.374;2022-12-18T04:44:57;-5.30;99.90
8109;DHT22;4097;47.812;12.374;2022-12-18T04:47:24;-5.40;99.90
8109;DHT22;4097;47.812;12.374;2022-12-18T04:49:52;-5.40;99.90
8109;DHT22;4097;47.812;12.374;2022-12-18T04:52:19;-5.40;99.90
8109;DHT22;4097;47.812;12.374;2022-12-18T04:54:46;-5.40;99.90
8109;DHT22;4097;47.812;12.374;2022-12-18T04:57:13;-5.30;99.90
8109;DHT22;4097;47.812;12.374;2022-12-18T04:59:40;-5.30;99.90
8109;DHT22;4097;47.812;12.374;2022-12-18T05:02:07;-5.30;99.90
8109;DHT22;4097;47.812;12.374;2022-12-18T05:04:34;-5.30;99.90
8109;DHT22;4097;47.812;12.374;2022-12-18T05:07:02;-5.20;99.90
8109;DHT22;4097;47.812;12.374;2022-12-18T05:09:29;-5.20;99.90
8109;DHT22;4097;47.812;12.374;2022-12-18T05:11:56;-5.20;99.90
8109;DHT22;4097;47.812;12.374;2022-12-18T05:14:23;-5.20;99.90
8109;DHT22;4097;47.812;12.374;2022-12-18T05:16:50;-5.20;99.90
8109;DHT22;4097;47.812;12.374;2022-12-18T05:19:17;-5.40;99.80
8109;DHT22;4097;47.812;12.374;2022-12-18T05:21:44;-5.40;99.80
8109;DHT22;4097;47.812;12.374;2022-12-18T05:24:12;-5.40;99.80
8109;DHT22;4097;47.812;12.374;2022-12-18T05:26:39;-5.50;99.50
8109;DHT22;4097;47.812;12.374;2022-12-18T05:29:06;-5.60;99.40
8109;DHT22;4097;47.812;12.374;2022-12-18T05:31:33;-5.70;99.40
8109;DHT22;4097;47.812;12.374;2022-12-18T05:34:00;-5.80;99.30
8109;DHT22;4097;47.812;12.374;2022-12-18T05:36:27;-5.90;99.20
8109;DHT22;4097;47.812;12.374;2022-12-18T05:38:54;-5.90;99.70
8109;DHT22;4097;47.812;12.374;2022-12-18T05:41:22;-5.80;99.90
8109;DHT22;4097;47.812;12.374;2022-12-18T05:43:49;-5.80;99.90
8109;DHT22;4097;47.812;12.374;2022-12-18T05:46:16;-5.70;99.90
8109;DHT22;4097;47.812;12.374;2022-12-18T05:48:44;-5.70;99.90
8109;DHT22;4097;47.812;12.374;2022-12-18T05:51:12;-5.70;99.90
8109;DHT22;4097;47.812;12.374;2022-12-18T05:53:40;-5.70;99.90
8109;DHT22;4097;47.812;12.374;2022-12-18T05:56:09;-5.80;99.80
8109;DHT22;4097;47.812;12.374;2022-12-18T05:58:37;-5.70;99.90
8109;DHT22;4097;47.812;12.374;2022-12-18T06:01:10;-5.60;99.90
8109;DHT22;4097;47.812;12.374;2022-12-18T06:03:38;-5.60;99.90
8109;DHT22;4097;47.812;12.374;2022-12-18T06:06:13;-5.80;99.50
8109;DHT22;4097;47.812;12.374;2022-12-18T06:08:40;-5.70;99.70
8109;DHT22;4097;47.812;12.374;2022-12-18T06:11:08;-5.60;99.90
8109;DHT22;4097;47.812;12.374;2022-12-18T06:13:36;-5.60;99.90
8109;DHT22;4097;47.812;12.374;2022-12-18T06:16:04;-5.60;99.90
8109;DHT22;4097;47.812;12.374;2022-12-18T06:18:31;-5.60;99.90
8109;DHT22;4097;47.812;12.374;2022-12-18T06:20:59;-5.70;99.70
8109;DHT22;4097;47.812;12.374;2022-12-18T06:23:27;-5.60;99.90
8109;DHT22;4097;47.812;12.374;2022-12-18T06:25:54;-5.70;99.90
8109;DHT22;4097;47.812;12.374;2022-12-18T06:28:23;-5.80;99.40
8109;DHT22;4097;47.812;12.374;2022-12-18T06:30:51;-6.00;99.10
8109;DHT22;4097;47.812;12.374;2022-12-18T06:33:18;-5.90;99.40
8109;DHT22;4097;47.812;12.374;2022-12-18T06:35:45;-5.90;99.60
8109;DHT22;4097;47.812;12.374;2022-12-18T06:38:12;-5.90;99.40
8109;DHT22;4097;47.812;12.374;2022-12-18T06:40:39;-6.10;99.20
8109;DHT22;4097;47.812;12.374;2022-12-18T06:43:06;-6.00;99.50
8109;DHT22;4097;47.812;12.374;2022-12-18T06:45:33;-6.00;99.60
8109;DHT22;4097;47.812;12.374;2022-12-18T06:48:01;-6.00;99.80
8109;DHT22;4097;47.812;12.374;2022-12-18T06:50:28;-6.00;99.60
8109;DHT22;4097;47.812;12.374;2022-12-18T06:52:55;-5.90;99.70
8109;DHT22;4097;47.812;12.374;2022-12-18T06:55:22;-5.90;99.80
8109;DHT22;4097;47.812;12.374;2022-12-18T06:57:49;-5.80;99.90
8109;DHT22;4097;47.812;12.374;2022-12-18T07:00:16;-5.80;99.90
8109;DHT22;4097;47.812;12.374;2022-12-18T07:02:43;-5.80;99.90
8109;DHT22;4097;47.812;12.374;2022-12-18T07:05:11;-5.90;99.50
8109;DHT22;4097;47.812;12.374;2022-12-18T07:07:40;-5.90;99.60
8109;DHT22;4097;47.812;12.374;2022-12-18T07:10:07;-5.90;99.90
8109;DHT22;4097;47.812;12.374;2022-12-18T07:12:34;-5.90;99.90
8109;DHT22;4097;47.812;12.374;2022-12-18T07:15:01;-5.80;99.90
8109;DHT22;4097;47.812;12.374;2022-12-18T07:17:28;-5.90;99.20
8109;DHT22;4097;47.812;12.374;2022-12-18T07:19:55;-5.90;99.20
8109;DHT22;4097;47.812;12.374;2022-12-18T07:22:24;-5.90;99.30
8109;DHT22;4097;47.812;12.374;2022-12-18T07:24:51;-5.90;99.20
8109;DHT22;4097;47.812;12.374;2022-12-18T07:27:22;-6.00;98.90
8109;DHT22;4097;47.812;12.374;2022-12-18T07:29:52;-6.00;99.00
8109;DHT22;4097;47.812;12.374;2022-12-18T07:32:26;-5.90;99.30
8109;DHT22;4097;47.812;12.374;2022-12-18T07:34:53;-5.90;99.40
8109;DHT22;4097;47.812;12.374;2022-12-18T07:37:22;-5.80;99.80
8109;DHT22;4097;47.812;12.374;2022-12-18T07:39:49;-5.80;99.80
8109;DHT22;4097;47.812;12.374;2022-12-18T07:42:26;-5.70;99.50
8109;DHT22;4097;47.812;12.374;2022-12-18T07:44:59;-5.70;99.70
8109;DHT22;4097;47.812;12.374;2022-12-18T07:47:29;-5.60;99.90
8109;DHT22;4097;47.812;12.374;2022-12-18T07:49:55;-5.70;99.30
8109;DHT22;4097;47.812;12.374;2022-12-18T07:52:24;-5.70;99.30
8109;DHT22;4097;47.812;12.374;2022-12-18T07:54:51;-5.70;99.30
8109;DHT22;4097;47.812;12.374;2022-12-18T07:57:18;-5.60;99.50
8109;DHT22;4097;47.812;12.374;2022-12-18T07:59:45;-5.60;99.60
8109;DHT22;4097;47.812;12.374;2022-12-18T08:02:12;-5.70;99.30
8109;DHT22;4097;47.812;12.374;2022-12-18T08:04:40;-5.70;99.50
8109;DHT22;4097;47.812;12.374;2022-12-18T08:07:17;-5.60;99.50
8109;DHT22;4097;47.812;12.374;2022-12-18T08:09:46;-5.50;99.90
8109;DHT22;4097;47.812;12.374;2022-12-18T08:12:13;-5.50;99.90
8109;DHT22;4097;47.812;12.374;2022-12-18T08:14:45;-5.40;99.90
8109;DHT22;4097;47.812;12.374;2022-12-18T08:17:17;-5.30;99.90
8109;DHT22;4097;47.812;12.374;2022-12-18T08:19:45;-5.20;99.90
8109;DHT22;4097;47.812;12.374;2022-12-18T08:22:12;-5.10;99.90
8109;DHT22;4097;47.812;12.374;2022-12-18T08:24:42;-5.20;99.90
8109;DHT22;4097;47.812;12.374;2022-12-18T08:27:10;-5.10;99.80
8109;DHT22;4097;47.812;12.374;2022-12-18T08:29:39;-5.10;99.80
8109;DHT22;4097;47.812;12.374;2022-12-18T08:34:46;-5.10;99.60
8109;DHT22;4097;47.812;12.374;2022-12-18T08:37:14;-5.00;99.80
8109;DHT22;4097;47.812;12.374;2022-12-18T08:39:41;-5.00;99.90
8109;DHT22;4097;47.812;12.374;2022-12-18T08:42:23;-4.90;99.90
8109;DHT22;4097;47.812;12.374;2022-12-18T08:45:08;-4.90;99.80
8109;DHT22;4097;47.812;12.374;2022-12-18T08:47:35;-4.90;99.60
8109;DHT22;4097;47.812;12.374;2022-12-18T08:50:06;-4.90;99.60
8109;DHT22;4097;47.812;12.374;2022-12-18T08:52:52;-4.80;99.90
8109;DHT22;4097;47.812;12.374;2022-12-18T08:55:36;-4.80;99.70
8109;DHT22;4097;47.812;12.374;2022-12-18T08:58:04;-4.70;99.90
8109;DHT22;4097;47.812;12.374;2022-12-18T09:00:31;-4.60;99.90
8109;DHT22;4097;47.812;12.374;2022-12-18T09:03:02;-4.60;99.90
8109;DHT22;4097;47.812;12.374;2022-12-18T09:05:30;-4.60;99.90
8109;DHT22;4097;47.812;12.374;2022-12-18T09:07:59;-4.50;99.90
8109;DHT22;4097;47.812;12.374;2022-12-18T09:10:54;-4.40;99.90
8109;DHT22;4097;47.812;12.374;2022-12-18T09:13:23;-4.20;99.90
8109;DHT22;4097;47.812;12.374;2022-12-18T09:15:52;-4.10;99.90
8109;DHT22;4097;47.812;12.374;2022-12-18T09:18:21;-4.00;99.90
8109;DHT22;4097;47.812;12.374;2022-12-18T09:20:55;-4.00;99.90
8109;DHT22;4097;47.812;12.374;2022-12-18T09:23:23;-3.80;99.90
8109;DHT22;4097;47.812;12.374;2022-12-18T09:25:50;-3.80;99.90
8109;DHT22;4097;47.812;12.374;2022-12-18T09:28:44;-3.80;99.90
8109;DHT22;4097;47.812;12.374;2022-12-18T09:31:13;-3.80;99.70
8109;DHT22;4097;47.812;12.374;2022-12-18T09:33:40;-3.90;99.60
8109;DHT22;4097;47.812;12.374;2022-12-18T09:36:24;-3.80;99.90
8109;DHT22;4097;47.812;12.374;2022-12-18T09:38:51;-3.70;99.90
8109;DHT22;4097;47.812;12.374;2022-12-18T09:41:42;-3.60;99.90
8109;DHT22;4097;47.812;12.374;2022-12-18T09:44:34;-3.40;99.90
8109;DHT22;4097;47.812;12.374;2022-12-18T09:47:09;-3.30;99.90
8109;DHT22;4097;47.812;12.374;2022-12-18T09:49:42;-3.20;99.90
8109;DHT22;4097;47.812;12.374;2022-12-18T09:52:14;-3.00;99.90
8109;DHT22;4097;47.812;12.374;2022-12-18T09:55:00;-2.90;99.90
8109;DHT22;4097;47.812;12.374;2022-12-18T09:57:31;-2.70;99.90
8109;DHT22;4097;47.812;12.374;2022-12-18T10:00:06;-2.50;99.90
8109;DHT22;4097;47.812;12.374;2022-12-18T10:02:43;-2.40;99.90
8109;DHT22;4097;47.812;12.374;2022-12-18T10:05:29;-2.30;99.90
8109;DHT22;4097;47.812;12.374;2022-12-18T10:08:16;-2.20;99.90
8109;DHT22;4097;47.812;12.374;2022-12-18T10:10:48;-2.20;99.90
8109;DHT22;4097;47.812;12.374;2022-12-18T10:13:24;-2.20;99.90
8109;DHT22;4097;47.812;12.374;2022-12-18T10:16:12;-2.30;99.90
8109;DHT22;4097;47.812;12.374;2022-12-18T10:19:05;-2.10;99.90
8109;DHT22;4097;47.812;12.374;2022-12-18T10:21:43;-1.90;99.90
8109;DHT22;4097;47.812;12.374;2022-12-18T10:24:39;-1.80;99.90
8109;DHT22;4097;47.812;12.374;2022-12-18T10:27:27;-2.20;99.70
8109;DHT22;4097;47.812;12.374;2022-12-18T10:32:31;-2.10;99.90
8109;DHT22;4097;47.812;12.374;2022-12-18T10:34:58;-2.10;99.90
8109;DHT22;4097;47.812;12.374;2022-12-18T10:37:27;-2.00;99.90
8109;DHT22;4097;47.812;12.374;2022-12-18T10:40:10;-2.10;99.90
8109;DHT22;4097;47.812;12.374;2022-12-18T10:42:46;-2.10;99.90
8109;DHT22;4097;47.812;12.374;2022-12-18T10:45:17;-2.10;99.90
8109;DHT22;4097;47.812;12.374;2022-12-18T10:47:48;-2.00;99.90
8109;DHT22;4097;47.812;12.374;2022-12-18T10:50:24;-2.00;99.90
8109;DHT22;4097;47.812;12.374;2022-12-18T10:52:58;-2.00;99.90
8109;DHT22;4097;47.812;12.374;2022-12-18T10:55:32;-2.00;99.90
8109;DHT22;4097;47.812;12.374;2022-12-18T10:58:18;-1.90;99.90
8109;DHT22;4097;47.812;12.374;2022-12-18T11:01:05;-1.80;99.90
8109;DHT22;4097;47.812;12.374;2022-12-18T11:03:36;-1.80;99.90
8109;DHT22;4097;47.812;12.374;2022-12-18T11:06:06;-1.70;99.90
8109;DHT22;4097;47.812;12.374;2022-12-18T11:08:34;-1.70;99.90
8109;DHT22;4097;47.812;12.374;2022-12-18T11:11:01;-1.80;99.90
8109;DHT22;4097;47.812;12.374;2022-12-18T11:13:29;-2.00;99.90
8109;DHT22;4097;47.812;12.374;2022-12-18T11:15:56;-2.00;99.90
8109;DHT22;4097;47.812;12.374;2022-12-18T11:18:26;-2.00;99.90
8109;DHT22;4097;47.812;12.374;2022-12-18T11:20:56;-2.20;99.90
8109;DHT22;4097;47.812;12.374;2022-12-18T11:23:24;-2.10;99.90
8109;DHT22;4097;47.812;12.374;2022-12-18T11:25:54;-2.10;99.90
8109;DHT22;4097;47.812;12.374;2022-12-18T11:28:34;-2.00;99.90
8109;DHT22;4097;47.812;12.374;2022-12-18T11:31:19;-1.90;99.90
8109;DHT22;4097;47.812;12.374;2022-12-18T11:33:50;-1.80;99.90
8109;DHT22;4097;47.812;12.374;2022-12-18T11:36:22;-1.70;99.90
8109;DHT22;4097;47.812;12.374;2022-12-18T11:38:51;-1.60;99.90
8109;DHT22;4097;47.812;12.374;2022-12-18T11:41:23;-1.50;99.90
8109;DHT22;4097;47.812;12.374;2022-12-18T11:44:15;-1.50;99.90
8109;DHT22;4097;47.812;12.374;2022-12-18T11:46:47;-1.40;99.90
8109;DHT22;4097;47.812;12.374;2022-12-18T11:49:20;-1.40;99.90
8109;DHT22;4097;47.812;12.374;2022-12-18T11:51:53;-1.30;99.90
8109;DHT22;4097;47.812;12.374;2022-12-18T11:54:22;-1.00;99.90
8109;DHT22;4097;47.812;12.374;2022-12-18T11:56:52;-0.90;99.90
8109;DHT22;4097;47.812;12.374;2022-12-18T11:59:26;-0.80;99.90
8109;DHT22;4097;47.812;12.374;2022-12-18T12:02:01;-0.70;99.90
8109;DHT22;4097;47.812;12.374;2022-12-18T12:05:03;-0.70;99.90
8109;DHT22;4097;47.812;12.374;2022-12-18T12:07:42;-0.70;99.90
8109;DHT22;4097;47.812;12.374;2022-12-18T12:10:25;-0.70;99.90
8109;DHT22;4097;47.812;12.374;2022-12-18T12:13:09;-0.70;99.90
8109;DHT22;4097;47.812;12.374;2022-12-18T12:15:46;-0.70;99.90
8109;DHT22;4097;47.812;12.374;2022-12-18T12:18:23;-0.60;99.90
8109;DHT22;4097;47.812;12.374;2022-12-18T12:21:01;-0.80;99.90
8109;DHT22;4097;47.812;12.374;2022-12-18T12:23:38;-0.80;99.90
8109;DHT22;4097;47.812;12.374;2022-12-18T12:26:11;-0.90;99.90
8109;DHT22;4097;47.812;12.374;2022-12-18T12:28:59;-0.80;99.90
8109;DHT22;4097;47.812;12.374;2022-12-18T12:31:43;-0.80;99.90
8109;DHT22;4097;47.812;12.374;2022-12-18T12:34:17;-0.80;99.90
8109;DHT22;4097;47.812;12.374;2022-12-18T12:36:57;-0.60;99.90
8109;DHT22;4097;47.812;12.374;2022-12-18T12:39:31;-0.50;99.90
8109;DHT22;4097;47.812;12.374;2022-12-18T12:42:00;-0.50;99.90
8109;DHT22;4097;47.812;12.374;2022-12-18T12:44:54;-0.40;99.90
8109;DHT22;4097;47.812;12.374;2022-12-18T12:47:31;-0.40;99.90
8109;DHT22;4097;47.812;12.374;2022-12-18T12:50:03;-0.50;99.90
8109;DHT22;4097;47.812;12.374;2022-12-18T12:52:35;-0.50;99.90
8109;DHT22;4097;47.812;12.374;2022-12-18T12:55:14;-0.40;99.90
8109;DHT22;4097;47.812;12.374;2022-12-18T12:57:46;-0.50;99.90
8109;DHT22;4097;47.812;12.374;2022-12-18T13:00:16;-0.60;99.90
8109;DHT22;4097;47.812;12.374;2022-12-18T13:02:48;-0.60;99.90
8109;DHT22;4097;47.812;12.374;2022-12-18T13:05:21;-0.60;99.90
8109;DHT22;4097;47.812;12.374;2022-12-18T13:07:54;-0.60;99.90
8109;DHT22;4097;47.812;12.374;2022-12-18T13:10:30;-0.60;99.90
8109;DHT22;4097;47.812;12.374;2022-12-18T13:13:00;-0.60;99.90
8109;DHT22;4097;47.812;12.374;2022-12-18T13:15:34;-0.80;99.90
8109;DHT22;4097;47.812;12.374;2022-12-18T13:18:05;-0.80;99.90
8109;DHT22;4097;47.812;12.374;2022-12-18T13:20:36;-0.70;99.90
8109;DHT22;4097;47.812;12.374;2022-12-18T13:26:33;-0.80;99.90
8109;DHT22;4097;47.812;12.374;2022-12-18T13:29:07;-0.80;99.90
8109;DHT22;4097;47.812;12.374;2022-12-18T13:32:21;-0.80;99.90
8109;DHT22;4097;47.812;12.374;2022-12-18T13:35:01;-0.90;99.90
8109;DHT22;4097;47.812;12.374;2022-12-18T13:37:53;-0.90;99.90
8109;DHT22;4097;47.812;12.374;2022-12-18T13:40:54;-0.90;99.90
8109;DHT22;4097;47.812;12.374;2022-12-18T13:43:32;-0.90;99.90
8109;DHT22;4097;47.812;12.374;2022-12-18T13:46:06;-0.80;99.90
8109;DHT22;4097;47.812;12.374;2022-12-18T13:48:50;-0.80;99.90
8109;DHT22;4097;47.812;12.374;2022-12-18T13:51:17;-0.90;99.90
8109;DHT22;4097;47.812;12.374;2022-12-18T13:53:50;-0.80;99.90
8109;DHT22;4097;47.812;12.374;2022-12-18T13:56:23;-0.80;99.90
8109;DHT22;4097;47.812;12.374;2022-12-18T13:59:08;-0.90;99.90
8109;DHT22;4097;47.812;12.374;2022-12-18T14:01:42;-1.00;99.90
8109;DHT22;4097;47.812;12.374;2022-12-18T14:04:10;-1.00;99.90
8109;DHT22;4097;47.812;12.374;2022-12-18T14:06:38;-1.00;99.90
8109;DHT22;4097;47.812;12.374;2022-12-18T14:09:12;-1.10;99.90
8109;DHT22;4097;47.812;12.374;2022-12-18T14:11:40;-1.20;99.90
8109;DHT22;4097;47.812;12.374;2022-12-18T14:14:07;-1.20;99.90
8109;DHT22;4097;47.812;12.374;2022-12-18T14:16:35;-1.10;99.90
8109;DHT22;4097;47.812;12.374;2022-12-18T14:19:03;-1.10;99.90
8109;DHT22;4097;47.812;12.374;2022-12-18T14:21:33;-1.10;99.90
8109;DHT22;4097;47.812;12.374;2022-12-18T14:24:12;-1.10;99.90
8109;DHT22;4097;47.812;12.374;2022-12-18T14:26:42;-1.10;99.90
8109;DHT22;4097;47.812;12.374;2022-12-18T14:29:21;-1.20;99.90
8109;DHT22;4097;47.812;12.374;2022-12-18T14:32:04;-1.20;99.90
8109;DHT22;4097;47.812;12.374;2022-12-18T14:34:31;-1.30;99.90
8109;DHT22;4097;47.812;12.374;2022-12-18T14:36:58;-1.20;99.90
8109;DHT22;4097;47.812;12.374;2022-12-18T14:39:27;-1.30;99.90
8109;DHT22;4097;47.812;12.374;2022-12-18T14:41:54;-1.40;99.90
8109;DHT22;4097;47.812;12.374;2022-12-18T14:44:21;-1.60;99.90
8109;DHT22;4097;47.812;12.374;2022-12-18T14:46:49;-1.70;99.90
8109;DHT22;4097;47.812;12.374;2022-12-18T14:49:23;-1.70;99.90
8109;DHT22;4097;47.812;12.374;2022-12-18T14:51:52;-1.70;99.90
8109;DHT22;4097;47.812;12.374;2022-12-18T14:54:21;-1.80;99.90
8109;DHT22;4097;47.812;12.374;2022-12-18T14:56:51;-1.80;99.90
8109;DHT22;4097;47.812;12.374;2022-12-18T14:59:22;-1.80;99.90
8109;DHT22;4097;47.812;12.374;2022-12-18T15:01:58;-1.90;99.90
8109;DHT22;4097;47.812;12.374;2022-12-18T15:04:27;-1.90;99.90
8109;DHT22;4097;47.812;12.374;2022-12-18T15:07:08;-1.90;99.90
8109;DHT22;4097;47.812;12.374;2022-12-18T15:09:36;-2.00;99.90
8109;DHT22;4097;47.812;12.374;2022-12-18T15:12:15;-2.10;99.90
8109;DHT22;4097;47.812;12.374;2022-12-18T15:14:46;-2.10;99.90
8109;DHT22;4097;47.812;12.374;2022-12-18T15:17:17;-2.20;99.90
8109;DHT22;4097;47.812;12.374;2022-12-18T15:19:46;-2.20;99.90
8109;DHT22;4097;47.812;12.374;2022-12-18T15:22:19;-2.30;99.90
8109;DHT22;4097;47.812;12.374;2022-12-18T15:24:47;-2.30;99.90
8109;DHT22;4097;47.812;12.374;2022-12-18T15:27:24;-2.40;99.90
8109;DHT22;4097;47.812;12.374;2022-12-18T15:30:16;-2.40;99.90
8109;DHT22;4097;47.812;12.374;2022-12-18T15:32:45;-2.30;99.90
8109;DHT22;4097;47.812;12.374;2022-12-18T15:35:15;-2.40;99.90
8109;DHT22;4097;47.812;12.374;2022-12-18T15:37:43;-2.40;99.90
8109;DHT22;4097;47.812;12.374;2022-12-18T15:40:14;-2.50;99.90
8109;DHT22;4097;47.812;12.374;2022-12-18T15:42:43;-2.40;99.90
8109;DHT22;4097;47.812;12.374;2022-12-18T15:45:27;-2.50;99.90
8109;DHT22;4097;47.812;12.374;2022-12-18T15:47:55;-2.50;99.90
8109;DHT22;4097;47.812;12.374;2022-12-18T15:50:23;-2.60;99.90
8109;DHT22;4097;47.812;12.374;2022-12-18T15:52:52;-2.60;99.90
8109;DHT22;4097;47.812;12.374;2022-12-18T15:55:21;-2.60;99.90
8109;DHT22;4097;47.812;12.374;2022-12-18T15:58:09;-2.60;99.90
8109;DHT22;4097;47.812;12.374;2022-12-18T16:00:38;-2.70;99.90
8109;DHT22;4097;47.812;12.374;2022-12-18T16:03:05;-2.60;99.90
8109;DHT22;4097;47.812;12.374;2022-12-18T16:05:32;-2.70;99.90
8109;DHT22;4097;47.812;12.374;2022-12-18T16:08:00;-2.80;99.90
8109;DHT22;4097;47.812;12.374;2022-12-18T16:10:27;-3.00;99.90
8109;DHT22;4097;47.812;12.374;2022-12-18T16:12:54;-3.10;99.90
8109;DHT22;4097;47.812;12.374;2022-12-18T16:15:23;-3.10;99.90
8109;DHT22;4097;47.812;12.374;2022-12-18T16:17:52;-3.10;99.90
8109;DHT22;4097;47.812;12.374;2022-12-18T16:20:21;-3.10;99.90
8109;DHT22;4097;47.812;12.374;2022-12-18T16:22:48;-3.10;99.90